createdAt,value
2018-05-07T00:00:58.557Z,52.48
2018-05-07T00:01:58.367Z,52.48
2018-05-07T00:02:58.462Z,52.49
2018-05-07T00:03:58.611Z,52.48
2018-05-07T00:04:58.397Z,52.5
2018-05-07T00:05:59.798Z,52.49
2018-05-07T00:06:58.301Z,52.51
2018-05-07T00:07:58.661Z,52.51
2018-05-07T00:08:59.128Z,52.48
2018-05-07T00:09:58.764Z,52.48
2018-05-07T00:10:58.625Z,52.46
2018-05-07T00:11:58.671Z,52.46
2018-05-07T00:12:58.520Z,52.46
2018-05-07T00:13:58.384Z,52.48
2018-05-07T00:14:58.352Z,52.44
2018-05-07T00:15:58.376Z,52.45
2018-05-07T00:16:58.365Z,52.48
2018-05-07T00:17:58.623Z,52.47
2018-05-07T00:18:58.456Z,52.43
2018-05-07T00:19:58.460Z,52.43
2018-05-07T00:20:58.413Z,52.44
2018-05-07T00:21:58.462Z,52.48
2018-05-07T00:22:58.524Z,52.48
2018-05-07T00:23:58.411Z,52.46
2018-05-07T00:24:58.472Z,52.48
2018-05-07T00:25:58.413Z,52.48
2018-05-07T00:26:58.389Z,52.46
2018-05-07T00:27:58.547Z,52.42
2018-05-07T00:28:58.607Z,52.43
2018-05-07T00:29:58.490Z,52.45
2018-05-07T00:30:58.604Z,52.4
2018-05-07T00:31:58.468Z,52.5
2018-05-07T00:32:58.506Z,52.49
2018-05-07T00:33:58.385Z,52.48
2018-05-07T00:34:58.469Z,52.49
2018-05-07T00:35:58.590Z,52.41
2018-05-07T00:36:58.623Z,52.42
2018-05-07T00:37:58.505Z,52.46
2018-05-07T00:38:58.391Z,52.42
2018-05-07T00:39:58.631Z,52.43
2018-05-07T00:40:58.603Z,52.44
2018-05-07T00:41:58.543Z,52.42
2018-05-07T00:42:58.554Z,52.42
2018-05-07T00:43:58.527Z,52.45
2018-05-07T00:44:58.391Z,52.46
2018-05-07T00:45:58.489Z,52.46
2018-05-07T00:46:58.525Z,52.46
2018-05-07T00:47:58.511Z,52.45
2018-05-07T00:48:58.287Z,52.43
2018-05-07T00:49:58.523Z,52.42
2018-05-07T00:50:58.490Z,52.43
2018-05-07T00:51:58.501Z,52.39
2018-05-07T00:52:58.393Z,52.44
2018-05-07T00:53:58.409Z,52.45
2018-05-07T00:54:58.509Z,52.43
2018-05-07T00:55:58.415Z,52.4
2018-05-07T00:56:58.353Z,52.41
2018-05-07T00:57:58.451Z,52.39
2018-05-07T00:58:58.377Z,52.42
2018-05-07T00:59:58.379Z,52.42
2018-05-07T01:00:58.579Z,52.4
2018-05-07T01:01:58.402Z,52.43
2018-05-07T01:02:58.350Z,52.41
2018-05-07T01:03:58.330Z,52.44
2018-05-07T01:04:58.751Z,52.43
2018-05-07T01:05:58.525Z,52.42
2018-05-07T01:06:58.559Z,52.38
2018-05-07T01:07:58.460Z,52.43
2018-05-07T01:08:58.442Z,52.43
2018-05-07T01:09:58.425Z,52.41
2018-05-07T01:10:58.490Z,52.41
2018-05-07T01:11:58.487Z,52.42
2018-05-07T01:12:58.583Z,52.42
2018-05-07T01:13:58.406Z,52.42
2018-05-07T01:14:58.526Z,52.41
2018-05-07T01:15:58.539Z,52.4
2018-05-07T01:16:58.603Z,52.42
2018-05-07T01:17:58.396Z,52.37
2018-05-07T01:18:58.518Z,52.38
2018-05-07T01:19:58.492Z,52.35
2018-05-07T01:20:58.327Z,52.41
2018-05-07T01:21:58.412Z,52.42
2018-05-07T01:22:58.405Z,52.4
2018-05-07T01:23:58.401Z,52.42
2018-05-07T01:24:58.474Z,52.42
2018-05-07T01:25:58.464Z,52.39
2018-05-07T01:26:58.520Z,52.38
2018-05-07T01:27:58.470Z,52.36
2018-05-07T01:28:58.637Z,52.41
2018-05-07T01:29:58.471Z,52.39
2018-05-07T01:30:58.508Z,52.4
2018-05-07T01:31:58.375Z,52.42
2018-05-07T01:32:58.362Z,52.38
2018-05-07T01:33:58.482Z,52.36
2018-05-07T01:34:58.507Z,52.39
2018-05-07T01:35:58.350Z,52.41
2018-05-07T01:36:58.361Z,52.41
2018-05-07T01:37:58.489Z,52.4
2018-05-07T01:39:08.379Z,52.37
2018-05-07T01:39:58.375Z,52.38
2018-05-07T01:40:58.525Z,52.43
2018-05-07T01:41:58.445Z,52.38
2018-05-07T01:42:58.481Z,52.42
2018-05-07T01:43:58.530Z,52.43
2018-05-07T01:44:58.591Z,52.36
2018-05-07T01:45:58.516Z,52.34
2018-05-07T01:46:58.543Z,52.38
2018-05-07T01:47:58.768Z,52.36
2018-05-07T01:48:58.516Z,52.37
2018-05-07T01:49:58.603Z,52.38
2018-05-07T01:50:58.467Z,52.38
2018-05-07T01:51:58.290Z,52.38
2018-05-07T01:52:58.483Z,52.36
2018-05-07T01:53:58.559Z,52.37
2018-05-07T01:54:58.475Z,52.35
2018-05-07T01:55:58.393Z,52.35
2018-05-07T01:56:58.386Z,52.36
2018-05-07T01:57:58.417Z,52.38
2018-05-07T01:58:58.545Z,52.38
2018-05-07T01:59:58.531Z,52.37
2018-05-07T02:00:58.473Z,52.36
2018-05-07T02:01:58.468Z,52.35
2018-05-07T02:02:58.391Z,52.38
2018-05-07T02:03:58.478Z,52.36
2018-05-07T02:04:58.346Z,52.37
2018-05-07T02:05:58.326Z,52.39
2018-05-07T02:06:58.497Z,52.35
2018-05-07T02:07:58.388Z,52.35
2018-05-07T02:08:58.556Z,52.36
2018-05-07T02:09:58.349Z,52.33
2018-05-07T02:10:58.438Z,52.36
2018-05-07T02:11:58.608Z,52.34
2018-05-07T02:12:58.379Z,52.31
2018-05-07T02:13:58.475Z,52.34
2018-05-07T02:14:58.379Z,52.37
2018-05-07T02:15:58.480Z,52.32
2018-05-07T02:16:58.302Z,52.35
2018-05-07T02:17:58.487Z,52.35
2018-05-07T02:18:58.644Z,52.36
2018-05-07T02:19:58.445Z,52.37
2018-05-07T02:20:58.393Z,52.3
2018-05-07T02:21:58.531Z,52.32
2018-05-07T02:22:58.467Z,52.34
2018-05-07T02:23:58.432Z,52.29
2018-05-07T02:24:58.422Z,52.31
2018-05-07T02:25:58.508Z,52.32
2018-05-07T02:26:58.538Z,52.37
2018-05-07T02:27:58.325Z,52.36
2018-05-07T02:28:58.541Z,52.36
2018-05-07T02:29:58.312Z,52.34
2018-05-07T02:30:58.467Z,52.33
2018-05-07T02:31:58.492Z,52.38
2018-05-07T02:32:58.493Z,52.29
2018-05-07T02:33:58.360Z,52.29
2018-05-07T02:34:58.395Z,52.29
2018-05-07T02:35:58.457Z,52.35
2018-05-07T02:36:58.535Z,52.32
2018-05-07T02:37:58.410Z,52.32
2018-05-07T02:38:59.040Z,52.33
2018-05-07T02:39:58.455Z,52.3
2018-05-07T02:40:58.354Z,52.34
2018-05-07T02:41:58.413Z,52.3
2018-05-07T02:42:58.418Z,52.31
2018-05-07T02:43:58.387Z,52.34
2018-05-07T02:44:58.382Z,52.3
2018-05-07T02:45:58.384Z,52.29
2018-05-07T02:46:58.542Z,52.31
2018-05-07T02:47:58.628Z,52.27
2018-05-07T02:48:58.469Z,52.27
2018-05-07T02:49:58.431Z,52.31
2018-05-07T02:50:58.415Z,52.26
2018-05-07T02:51:58.564Z,52.3
2018-05-07T02:52:58.362Z,52.29
2018-05-07T02:53:58.283Z,52.34
2018-05-07T02:54:58.374Z,52.26
2018-05-07T02:55:58.292Z,52.3
2018-05-07T02:56:58.356Z,52.29
2018-05-07T02:57:58.489Z,52.34
2018-05-07T02:58:58.533Z,52.32
2018-05-07T02:59:58.435Z,52.29
2018-05-07T03:00:58.361Z,52.28
2018-05-07T03:01:58.414Z,52.27
2018-05-07T03:02:58.329Z,52.27
2018-05-07T03:03:58.319Z,52.25
2018-05-07T03:04:58.429Z,52.28
2018-05-07T03:05:58.317Z,52.25
2018-05-07T03:06:58.327Z,52.28
2018-05-07T03:07:58.465Z,52.28
2018-05-07T03:08:58.418Z,52.27
2018-05-07T03:09:58.361Z,52.27
2018-05-07T03:10:58.361Z,52.29
2018-05-07T03:11:58.392Z,52.3
2018-05-07T03:12:58.399Z,52.27
2018-05-07T03:13:58.333Z,52.3
2018-05-07T03:14:58.401Z,52.24
2018-05-07T03:15:58.337Z,52.27
2018-05-07T03:16:58.637Z,52.24
2018-05-07T03:17:58.430Z,52.26
2018-05-07T03:18:58.436Z,52.22
2018-05-07T03:19:58.454Z,52.28
2018-05-07T03:20:58.496Z,52.26
2018-05-07T03:21:58.395Z,52.26
2018-05-07T03:22:58.643Z,52.23
2018-05-07T03:23:58.450Z,52.21
2018-05-07T03:24:58.429Z,52.21
2018-05-07T03:25:58.315Z,52.27
2018-05-07T03:26:58.377Z,52.23
2018-05-07T03:27:58.324Z,52.23
2018-05-07T03:28:58.362Z,52.27
2018-05-07T03:29:58.309Z,52.26
2018-05-07T03:30:58.352Z,52.26
2018-05-07T03:31:58.545Z,52.27
2018-05-07T03:32:58.591Z,52.27
2018-05-07T03:33:58.360Z,52.25
2018-05-07T03:34:58.454Z,52.24
2018-05-07T03:35:58.348Z,52.26
2018-05-07T03:36:58.477Z,52.2
2018-05-07T03:37:58.414Z,52.28
2018-05-07T03:38:58.478Z,52.26
2018-05-07T03:40:58.363Z,52.26
2018-05-07T03:41:58.386Z,52.26
2018-05-07T03:42:58.467Z,52.25
2018-05-07T03:43:58.408Z,52.28
2018-05-07T03:44:58.423Z,52.23
2018-05-07T06:01:42.352Z,52.14
2018-05-07T06:02:42.703Z,52.19
2018-05-07T06:03:43.336Z,52.18
2018-05-07T06:04:42.594Z,52.19
2018-05-07T06:05:42.231Z,52.18
2018-05-07T06:06:42.347Z,52.2
2018-05-07T06:07:42.411Z,52.16
2018-05-07T06:08:42.394Z,52.14
2018-05-07T06:09:42.415Z,52.16
2018-05-07T06:10:42.324Z,52.13
2018-05-07T06:11:42.463Z,52.19
2018-05-07T06:12:42.189Z,52.16
2018-05-07T06:13:42.302Z,52.21
2018-05-07T06:14:43.926Z,52.18
2018-05-07T06:15:42.285Z,52.16
2018-05-07T06:16:42.665Z,52.19
2018-05-07T06:17:42.147Z,52.19
2018-05-07T06:18:42.299Z,52.17
2018-05-07T06:19:42.495Z,52.16
2018-05-07T06:20:42.317Z,52.18
2018-05-07T06:21:42.296Z,52.14
2018-05-07T06:22:42.273Z,52.14
2018-05-07T06:23:42.156Z,52.19
2018-05-07T06:24:42.279Z,52.16
2018-05-07T06:25:42.369Z,52.13
2018-05-07T06:26:42.313Z,52.16
2018-05-07T06:27:42.161Z,52.12
2018-05-07T06:28:42.434Z,52.16
2018-05-07T06:29:42.178Z,52.2
2018-05-07T06:30:42.233Z,52.18
2018-05-07T06:31:42.414Z,52.16
2018-05-07T06:32:42.309Z,52.18
2018-05-07T06:33:42.401Z,52.13
2018-05-07T06:34:42.206Z,52.16
2018-05-07T06:35:42.398Z,52.18
2018-05-07T06:36:42.322Z,52.16
2018-05-07T06:37:42.243Z,52.18
2018-05-07T06:38:42.486Z,52.17
2018-05-07T06:39:42.421Z,52.15
2018-05-07T06:40:42.306Z,52.16
2018-05-07T06:41:42.363Z,52.13
2018-05-07T06:42:42.388Z,52.14
2018-05-07T06:43:42.598Z,52.15
2018-05-07T06:44:42.220Z,52.18
2018-05-07T06:45:42.606Z,52.14
2018-05-07T06:46:42.518Z,52.16
2018-05-07T06:47:42.329Z,52.16
2018-05-07T06:48:42.444Z,52.16
2018-05-07T06:49:42.313Z,52.16
2018-05-07T06:50:42.247Z,52.18
2018-05-07T06:51:42.396Z,52.12
2018-05-07T06:52:42.532Z,52.14
2018-05-07T06:53:43.560Z,52.16
2018-05-07T06:54:42.458Z,52.16
2018-05-07T06:55:42.328Z,52.19
2018-05-07T06:56:42.257Z,52.21
2018-05-07T06:57:42.307Z,52.16
2018-05-07T06:58:42.375Z,52.15
2018-05-07T06:59:42.316Z,52.2
2018-05-07T07:00:42.249Z,52.18
2018-05-07T07:01:42.350Z,52.16
2018-05-07T07:02:44.295Z,52.13
2018-05-07T07:03:42.403Z,52.13
2018-05-07T07:04:42.336Z,52.12
2018-05-07T07:05:42.390Z,52.19
2018-05-07T07:06:42.367Z,52.11
2018-05-07T07:07:42.141Z,52.15
2018-05-07T07:08:42.954Z,52.15
2018-05-07T07:09:42.330Z,52.15
2018-05-07T07:10:42.314Z,52.17
2018-05-07T07:11:42.234Z,52.15
2018-05-07T07:12:42.288Z,52.14
2018-05-07T07:13:42.317Z,52.12
2018-05-07T07:14:42.290Z,52.13
2018-05-07T07:15:42.262Z,52.15
2018-05-07T07:16:42.341Z,52.11
2018-05-07T07:17:42.390Z,52.16
2018-05-07T07:18:42.122Z,52.14
2018-05-07T07:19:42.176Z,52.12
2018-05-07T07:20:42.235Z,52.12
2018-05-07T07:21:42.697Z,52.15
2018-05-07T07:22:42.218Z,52.14
2018-05-07T07:23:42.320Z,52.18
2018-05-07T07:24:42.381Z,52.15
2018-05-07T07:25:42.182Z,52.17
2018-05-07T07:26:42.411Z,52.18
2018-05-07T07:27:42.285Z,52.15
2018-05-07T07:28:42.191Z,52.16
2018-05-07T07:29:52.170Z,52.16
2018-05-07T07:30:42.164Z,52.13
2018-05-07T07:31:42.363Z,52.1
2018-05-07T07:32:42.324Z,52.16
2018-05-07T07:33:42.988Z,52.13
2018-05-07T07:34:42.210Z,52.16
2018-05-07T07:35:42.149Z,52.19
2018-05-07T07:36:42.302Z,52.16
2018-05-07T07:37:42.311Z,52.11
2018-05-07T07:38:42.724Z,52.16
2018-05-07T07:39:42.554Z,52.16
2018-05-07T07:40:42.370Z,52.13
2018-05-07T07:41:42.390Z,52.12
2018-05-07T07:42:42.309Z,52.14
2018-05-07T07:43:42.298Z,52.15
2018-05-07T07:44:42.319Z,52.17
2018-05-07T07:45:42.231Z,52.12
2018-05-07T07:46:42.120Z,52.13
2018-05-07T07:47:42.529Z,52.19
2018-05-07T07:48:42.308Z,52.12
2018-05-07T07:49:42.405Z,52.13
2018-05-07T07:50:42.396Z,52.16
2018-05-07T07:51:42.505Z,52.14
2018-05-07T07:52:42.282Z,52.16
2018-05-07T07:53:42.913Z,52.15
2018-05-07T07:54:42.326Z,52.11
2018-05-07T07:55:42.172Z,52.09
2018-05-07T07:56:42.315Z,52.15
2018-05-07T07:57:42.104Z,52.13
2018-05-07T07:58:42.289Z,52.13
2018-05-07T07:59:42.270Z,52.21
2018-05-07T08:00:42.322Z,52.15
2018-05-07T08:01:43.057Z,52.15
2018-05-07T08:02:42.254Z,52.16
2018-05-07T08:03:42.289Z,52.15
2018-05-07T08:04:42.366Z,52.14
2018-05-07T08:05:42.219Z,52.16
2018-05-07T08:06:42.309Z,52.12
2018-05-07T08:07:42.436Z,52.15
2018-05-07T08:08:42.174Z,52.17
2018-05-07T08:09:42.225Z,52.13
2018-05-07T08:10:42.283Z,52.11
2018-05-07T08:11:42.356Z,52.2
2018-05-07T08:12:42.319Z,52.09
2018-05-07T08:13:42.352Z,52.14
2018-05-07T08:14:42.330Z,52.15
2018-05-07T08:15:42.265Z,52.11
2018-05-07T08:16:42.148Z,52.14
2018-05-07T08:17:42.238Z,52.16
2018-05-07T08:18:42.308Z,52.16
2018-05-07T08:19:42.185Z,52.15
2018-05-07T08:20:42.192Z,52.15
2018-05-07T08:21:42.200Z,52.11
2018-05-07T08:22:42.308Z,52.14
2018-05-07T08:23:42.233Z,52.18
2018-05-07T08:24:42.729Z,52.13
2018-05-07T08:25:42.347Z,52.11
2018-05-07T08:26:42.244Z,52.15
2018-05-07T08:27:42.373Z,52.15
2018-05-07T08:28:42.463Z,52.13
2018-05-07T08:29:42.225Z,52.16
2018-05-07T08:30:42.123Z,52.14
2018-05-07T08:31:42.196Z,52.15
2018-05-07T08:32:42.287Z,52.15
2018-05-07T08:33:42.306Z,52.13
2018-05-07T08:34:42.258Z,52.18
2018-05-07T08:35:42.378Z,52.16
2018-05-07T08:36:43.051Z,52.14
2018-05-07T08:37:42.232Z,52.12
2018-05-07T08:38:42.191Z,52.18
2018-05-07T08:39:42.361Z,52.11
2018-05-07T08:40:42.296Z,52.16
2018-05-07T08:41:42.182Z,52.17
2018-05-07T08:42:42.206Z,52.11
2018-05-07T08:43:42.350Z,52.13
2018-05-07T08:44:42.254Z,52.2
2018-05-07T08:45:42.236Z,52.14
2018-05-07T08:46:42.260Z,52.11
2018-05-07T08:47:42.281Z,52.15
2018-05-07T08:48:42.259Z,52.14
2018-05-07T08:49:42.149Z,52.17
2018-05-07T08:50:42.121Z,52.19
2018-05-07T08:51:42.435Z,52.14
2018-05-07T08:52:42.649Z,52.14
2018-05-07T08:53:42.363Z,52.18
2018-05-07T08:54:42.221Z,52.13
2018-05-07T08:55:42.332Z,52.14
2018-05-07T08:56:42.156Z,52.18
2018-05-07T08:57:42.457Z,52.16
2018-05-07T08:58:42.307Z,52.15
2018-05-07T08:59:42.284Z,52.15
2018-05-07T09:00:42.225Z,52.16
2018-05-07T09:01:42.121Z,52.15
2018-05-07T09:02:42.333Z,52.18
2018-05-07T09:03:42.121Z,52.15
2018-05-07T09:04:42.114Z,52.13
2018-05-07T09:05:42.127Z,52.21
2018-05-07T09:06:42.126Z,52.13
2018-05-07T09:07:42.343Z,52.14
2018-05-07T09:08:42.362Z,52.17
2018-05-07T09:09:42.222Z,52.12
2018-05-07T09:10:42.364Z,52.18
2018-05-07T09:11:42.322Z,52.18
2018-05-07T09:12:42.389Z,52.16
2018-05-07T09:13:43.333Z,52.12
2018-05-07T09:14:42.133Z,52.16
2018-05-07T09:15:42.305Z,52.15
2018-05-07T09:16:42.329Z,52.16
2018-05-07T09:17:42.184Z,52.21
2018-05-07T09:18:42.359Z,52.15
2018-05-07T09:19:42.295Z,52.14
2018-05-07T09:20:42.361Z,52.18
2018-05-07T09:21:42.201Z,52.15
2018-05-07T09:22:42.381Z,52.16
2018-05-07T09:23:42.353Z,52.2
2018-05-07T09:24:42.943Z,52.14
2018-05-07T09:25:52.166Z,52.16
2018-05-07T09:26:42.308Z,52.23
2018-05-07T09:27:42.131Z,52.14
2018-05-07T09:28:42.388Z,52.17
2018-05-07T09:29:42.154Z,52.22
2018-05-07T09:30:42.081Z,52.15
2018-05-07T09:31:42.154Z,52.15
2018-05-07T09:32:42.127Z,52.15
2018-05-07T09:33:42.196Z,52.12
2018-05-07T09:34:42.253Z,52.16
2018-05-07T09:35:42.290Z,52.2
2018-05-07T09:36:42.211Z,52.14
2018-05-07T09:37:42.183Z,52.16
2018-05-07T09:38:42.365Z,52.21
2018-05-07T09:39:42.208Z,52.17
2018-05-07T09:40:42.287Z,52.16
2018-05-07T09:41:42.128Z,52.2
2018-05-07T09:42:42.095Z,52.16
2018-05-07T09:43:42.324Z,52.17
2018-05-07T09:44:42.406Z,52.19
2018-05-07T09:45:42.280Z,52.18
2018-05-07T09:46:42.150Z,52.14
2018-05-07T09:47:42.346Z,52.2
2018-05-07T09:48:42.307Z,52.12
2018-05-07T09:49:42.349Z,52.18
2018-05-07T09:50:42.196Z,52.16
2018-05-07T09:51:42.165Z,52.18
2018-05-07T09:52:42.372Z,52.16
2018-05-07T09:53:42.246Z,52.21
2018-05-07T09:54:42.143Z,52.15
2018-05-07T09:55:42.731Z,52.18
2018-05-07T09:56:42.576Z,52.22
2018-05-07T09:57:42.215Z,52.16
2018-05-07T09:58:42.167Z,52.17
2018-05-07T09:59:42.277Z,52.21
2018-05-07T10:00:42.140Z,52.16
2018-05-07T10:01:42.221Z,52.15
2018-05-07T10:02:42.229Z,52.22
2018-05-07T10:03:42.222Z,52.15
2018-05-07T10:04:42.172Z,52.18
2018-05-07T10:05:42.471Z,52.18
2018-05-07T10:06:42.210Z,52.15
2018-05-07T10:07:42.114Z,52.15
2018-05-07T10:08:42.215Z,52.21
2018-05-07T10:09:42.250Z,52.18
2018-05-07T10:10:42.360Z,52.17
2018-05-07T10:11:42.214Z,52.2
2018-05-07T10:12:42.112Z,52.17
2018-05-07T10:13:42.187Z,52.15
2018-05-07T10:14:42.153Z,52.19
2018-05-07T10:15:42.045Z,52.13
2018-05-07T10:16:42.299Z,52.17
2018-05-07T10:17:42.357Z,52.16
2018-05-07T10:18:42.155Z,52.14
2018-05-07T10:19:42.379Z,52.16
2018-05-07T10:20:42.249Z,52.21
2018-05-07T10:21:42.182Z,52.17
2018-05-07T10:22:42.176Z,52.15
2018-05-07T10:23:42.306Z,52.24
2018-05-07T10:24:42.322Z,52.14
2018-05-07T10:25:42.147Z,52.17
2018-05-07T10:26:42.069Z,52.19
2018-05-07T10:27:42.146Z,52.17
2018-05-07T10:28:42.198Z,52.16
2018-05-07T10:29:42.529Z,52.22
2018-05-07T10:30:42.289Z,52.16
2018-05-07T10:31:42.145Z,52.17
2018-05-07T10:32:42.294Z,52.19
2018-05-07T10:33:42.216Z,52.16
2018-05-07T10:34:42.143Z,52.18
2018-05-07T10:35:42.313Z,52.24
2018-05-07T10:36:42.291Z,52.15
2018-05-07T10:37:42.109Z,52.18
2018-05-07T10:38:42.187Z,52.21
2018-05-07T10:39:42.276Z,52.14
2018-05-07T10:40:42.316Z,52.18
2018-05-07T10:41:42.129Z,52.17
2018-05-07T10:42:42.478Z,52.2
2018-05-07T10:43:42.278Z,52.18
2018-05-07T10:44:42.293Z,52.23
2018-05-07T10:45:42.199Z,52.19
2018-05-07T10:46:42.223Z,52.19
2018-05-07T10:47:42.197Z,52.16
2018-05-07T10:48:42.194Z,52.21
2018-05-07T10:49:42.107Z,52.21
2018-05-07T10:50:42.229Z,52.23
2018-05-07T10:51:42.170Z,52.17
2018-05-07T10:52:42.182Z,52.17
2018-05-07T10:53:42.149Z,52.22
2018-05-07T10:54:42.199Z,52.15
2018-05-07T10:55:42.052Z,52.16
2018-05-07T10:56:42.376Z,52.22
2018-05-07T10:57:42.530Z,52.18
2018-05-07T10:58:42.112Z,52.14
2018-05-07T10:59:42.117Z,52.24
2018-05-07T11:00:42.242Z,52.18
2018-05-07T11:01:43.277Z,52.16
2018-05-07T11:02:42.203Z,52.23
2018-05-07T11:03:42.042Z,52.17
2018-05-07T11:04:42.191Z,52.18
2018-05-07T11:05:42.177Z,52.21
2018-05-07T11:06:42.043Z,52.16
2018-05-07T11:07:42.380Z,52.19
2018-05-07T11:08:42.332Z,52.19
2018-05-07T11:09:42.276Z,52.15
2018-05-07T11:11:13.114Z,52.16
2018-05-07T11:11:42.256Z,52.19
2018-05-07T11:12:42.173Z,52.18
2018-05-07T11:13:42.052Z,52.12
2018-05-07T11:14:42.209Z,52.18
2018-05-07T11:15:42.086Z,52.15
2018-05-07T11:16:42.139Z,52.18
2018-05-07T11:17:42.244Z,52.17
2018-05-07T11:18:42.255Z,52.15
2018-05-07T11:19:42.727Z,52.18
2018-05-07T11:20:42.146Z,52.25
2018-05-07T11:21:42.167Z,52.16
2018-05-07T11:22:42.167Z,52.17
2018-05-07T11:23:42.323Z,52.23
2018-05-07T11:24:42.270Z,52.26
2018-05-07T11:25:42.327Z,52.26
2018-05-07T11:26:42.145Z,52.25
2018-05-07T11:27:42.460Z,52.16
2018-05-07T11:28:42.334Z,52.22
2018-05-07T11:29:42.217Z,52.16
2018-05-07T11:30:42.301Z,52.17
2018-05-07T11:31:42.382Z,52.19
2018-05-07T11:32:42.254Z,52.13
2018-05-07T11:33:42.156Z,52.18
2018-05-07T11:34:42.313Z,52.19
2018-05-07T11:35:42.232Z,52.21
2018-05-07T11:36:42.145Z,52.18
2018-05-07T11:37:42.371Z,52.21
2018-05-07T11:38:42.142Z,52.26
2018-05-07T11:39:42.226Z,52.19
2018-05-07T11:40:42.155Z,52.19
2018-05-07T11:41:42.142Z,52.22
2018-05-07T11:42:42.270Z,52.18
2018-05-07T11:43:42.198Z,52.19
2018-05-07T11:44:42.118Z,52.3
2018-05-07T11:45:42.147Z,52.23
2018-05-07T11:46:42.195Z,52.31
2018-05-07T11:47:42.879Z,52.09
2018-05-07T11:48:42.121Z,52.07
2018-05-07T11:49:42.032Z,52.1
2018-05-07T11:50:42.234Z,52.11
2018-05-07T11:51:42.134Z,52.25
2018-05-07T11:52:42.337Z,52.35
2018-05-07T11:53:42.168Z,52.31
2018-05-07T11:54:42.249Z,52.3
2018-05-07T11:55:42.109Z,52.28
2018-05-07T11:56:42.142Z,52.27
2018-05-07T11:57:42.256Z,52.23
2018-05-07T11:58:42.242Z,52.18
2018-05-07T11:59:42.159Z,52.21
2018-05-07T12:00:42.201Z,52.28
2018-05-07T12:01:42.213Z,52.15
2018-05-07T12:02:42.663Z,52.16
2018-05-07T12:03:42.192Z,52.15
2018-05-07T12:04:42.126Z,52.1
2018-05-07T12:05:42.317Z,52.07
2018-05-07T12:06:42.128Z,52.02
2018-05-07T12:07:42.093Z,52.08
2018-05-07T12:08:42.246Z,52.04
2018-05-07T12:09:42.139Z,52.14
2018-05-07T12:10:42.149Z,52.06
2018-05-07T12:11:42.277Z,51.89
2018-05-07T12:12:42.107Z,51.88
2018-05-07T12:13:42.180Z,52.06
2018-05-07T12:14:42.089Z,52.06
2018-05-07T12:15:42.839Z,52.06
2018-05-07T12:16:42.212Z,52.02
2018-05-07T12:17:42.156Z,52.1
2018-05-07T12:18:42.154Z,52.1
2018-05-07T12:19:42.191Z,52.11
2018-05-07T12:20:42.269Z,52.16
2018-05-07T12:21:42.160Z,52.12
2018-05-07T12:22:42.228Z,52.1
2018-05-07T12:23:42.183Z,52.12
2018-05-07T12:24:42.321Z,52.18
2018-05-07T12:25:42.104Z,52.15
2018-05-07T12:26:42.177Z,52.15
2018-05-07T12:27:42.243Z,52.13
2018-05-07T12:28:42.159Z,52.16
2018-05-07T12:29:42.203Z,52.18
2018-05-07T12:30:42.336Z,52.17
2018-05-07T12:31:44.275Z,52.19
2018-05-07T12:32:42.005Z,52.18
2018-05-07T12:33:42.144Z,52.12
2018-05-07T12:34:42.121Z,52.14
2018-05-07T12:35:42.383Z,52.17
2018-05-07T12:36:42.056Z,52.15
2018-05-07T12:37:42.792Z,52.17
2018-05-07T12:38:42.153Z,52.14
2018-05-07T12:39:42.110Z,52.12
2018-05-07T12:40:42.176Z,52.12
2018-05-07T12:41:42.283Z,52.18
2018-05-07T12:42:42.237Z,52.16
2018-05-07T12:43:42.265Z,52.12
2018-05-07T12:44:42.148Z,52.16
2018-05-07T12:45:42.151Z,52.14
2018-05-07T12:46:42.801Z,52.16
2018-05-07T12:47:42.076Z,52.16
2018-05-07T12:48:42.242Z,52.14
2018-05-07T12:49:42.172Z,52.16
2018-05-07T12:50:42.125Z,52.16
2018-05-07T12:51:42.193Z,52.17
2018-05-07T12:52:42.817Z,52.18
2018-05-07T12:53:42.277Z,52.19
2018-05-07T12:54:42.174Z,52.14
2018-05-07T12:55:42.068Z,52.13
2018-05-07T12:56:42.128Z,52.17
2018-05-07T12:57:42.145Z,52.17
2018-05-07T12:58:42.078Z,52.18
2018-05-07T12:59:42.042Z,52.16
2018-05-07T13:00:42.194Z,52.15
2018-05-07T13:01:42.140Z,52.14
2018-05-07T13:02:42.128Z,52.18
2018-05-07T13:03:42.146Z,52.14
2018-05-07T13:04:42.262Z,52.18
2018-05-07T13:05:42.227Z,52.16
2018-05-07T13:06:42.038Z,52.14
2018-05-07T13:07:42.216Z,52.16
2018-05-07T13:08:42.236Z,52.17
2018-05-07T13:09:41.999Z,52.17
2018-05-07T13:10:42.271Z,52.13
2018-05-07T13:11:42.180Z,52.16
2018-05-07T13:12:42.256Z,52.17
2018-05-07T13:13:42.164Z,52.1
2018-05-07T13:14:42.201Z,52.15
2018-05-07T13:15:42.333Z,52.13
2018-05-07T13:16:42.129Z,52.15
2018-05-07T13:17:42.212Z,52.17
2018-05-07T13:18:42.357Z,52.15
2018-05-07T13:19:42.064Z,52.13
2018-05-07T13:20:42.290Z,52.17
2018-05-07T13:21:42.171Z,52.12
2018-05-07T13:22:42.170Z,52.16
2018-05-07T13:23:42.033Z,52.14
2018-05-07T13:24:42.238Z,52.17
2018-05-07T13:25:42.171Z,52.12
2018-05-07T13:26:42.157Z,52.15
2018-05-07T13:27:42.055Z,52.16
2018-05-07T13:28:42.170Z,52.14
2018-05-07T13:29:42.070Z,52.18
2018-05-07T13:30:42.224Z,52.2
2018-05-07T13:31:42.241Z,52.18
2018-05-07T13:32:42.092Z,52.14
2018-05-07T13:33:42.126Z,52.35
2018-05-07T13:34:42.203Z,52.24
2018-05-07T13:35:42.134Z,52.24
2018-05-07T13:36:42.659Z,52.16
2018-05-07T13:37:42.169Z,52.15
2018-05-07T13:38:42.113Z,52.23
2018-05-07T13:39:42.308Z,52.16
2018-05-07T13:40:42.602Z,52.2
2018-05-07T13:41:42.142Z,52.2
2018-05-07T13:42:42.188Z,52.15
2018-05-07T13:43:42.408Z,52.1
2018-05-07T13:44:42.118Z,52.21
2018-05-07T13:45:42.416Z,52.12
2018-05-07T13:46:42.142Z,52.13
2018-05-07T13:47:42.295Z,52.24
2018-05-07T13:48:42.131Z,52.12
2018-05-07T13:49:42.025Z,52.14
2018-05-07T13:50:42.349Z,52.18
2018-05-07T13:51:42.130Z,52.12
2018-05-07T13:52:42.337Z,52.17
2018-05-07T13:53:42.052Z,52.2
2018-05-07T13:54:42.314Z,52.12
2018-05-07T13:55:42.303Z,52.15
2018-05-07T13:56:42.315Z,52.17
2018-05-07T13:57:42.237Z,52.14
2018-05-07T13:58:42.289Z,52.14
2018-05-07T13:59:42.221Z,52.21
2018-05-07T14:00:42.304Z,52.16
2018-05-07T14:01:42.294Z,52.14
2018-05-07T14:02:42.948Z,52.15
2018-05-07T14:03:42.178Z,52.11
2018-05-07T14:04:42.144Z,52.08
2018-05-07T14:05:42.209Z,52.15
2018-05-07T14:06:42.317Z,52.11
2018-05-07T14:07:42.254Z,52.13
2018-05-07T14:08:42.138Z,52.15
2018-05-07T14:09:42.194Z,52.15
2018-05-07T14:10:42.179Z,52.1
2018-05-07T14:11:42.273Z,52.16
2018-05-07T14:12:42.271Z,52.11
2018-05-07T14:13:42.099Z,52.08
2018-05-07T14:14:42.353Z,52.14
2018-05-07T14:15:52.186Z,52.1
2018-05-07T14:16:42.827Z,52.14
2018-05-07T14:17:42.324Z,52.15
2018-05-07T14:18:42.183Z,52.1
2018-05-07T14:19:42.208Z,52.11
2018-05-07T14:20:42.134Z,52.17
2018-05-07T14:21:42.128Z,52.13
2018-05-07T14:22:42.256Z,52.11
2018-05-07T14:23:41.918Z,52.16
2018-05-07T14:24:42.243Z,52.07
2018-05-07T14:25:42.572Z,52.07
2018-05-07T14:26:42.123Z,52.13
2018-05-07T14:27:42.376Z,52.1
2018-05-07T14:28:42.166Z,52.1
2018-05-07T14:29:42.383Z,52.16
2018-05-07T14:30:42.087Z,52.11
2018-05-07T14:31:42.265Z,52.13
2018-05-07T14:32:42.118Z,52.15
2018-05-07T14:33:42.179Z,52.1
2018-05-07T14:34:42.444Z,52.1
2018-05-07T14:35:42.185Z,52.11
2018-05-07T14:36:42.066Z,52.05
2018-05-07T14:37:42.228Z,52.07
2018-05-07T14:38:42.670Z,52.16
2018-05-07T14:39:42.049Z,52.08
2018-05-07T14:40:42.079Z,52.07
2018-05-07T14:41:42.115Z,52.14
2018-05-07T14:42:42.192Z,52.07
2018-05-07T14:43:42.044Z,52.07
2018-05-07T14:44:42.135Z,52.15
2018-05-07T14:45:42.067Z,52.08
2018-05-07T14:46:42.234Z,52.04
2018-05-07T14:47:42.233Z,52.11
2018-05-07T14:48:42.185Z,52.05
2018-05-07T14:49:42.048Z,52
2018-05-07T14:50:42.333Z,52.12
2018-05-07T14:51:42.260Z,52.06
2018-05-07T14:52:42.306Z,52.05
2018-05-07T14:53:42.071Z,52.11
2018-05-07T14:54:42.122Z,52.06
2018-05-07T14:55:42.528Z,52.05
2018-05-07T14:56:42.226Z,52.1
2018-05-07T14:57:42.163Z,52.08
2018-05-07T14:58:42.978Z,52.07
2018-05-07T14:59:42.074Z,52.07
2018-05-07T15:00:41.978Z,52.03
2018-05-07T15:01:42.209Z,52.07
2018-05-07T15:02:42.305Z,52.11
2018-05-07T15:03:42.053Z,52.01
2018-05-07T15:04:42.234Z,52.06
2018-05-07T15:05:41.983Z,52.12
2018-05-07T15:06:42.137Z,52.03
2018-05-07T15:07:42.119Z,52.08
2018-05-07T15:08:42.090Z,52.09
2018-05-07T15:09:42.233Z,52.07
2018-05-07T15:10:42.203Z,52.06
2018-05-07T15:11:42.093Z,52.1